Time;durP1;ratioP1;P1;durP2;ratioP2;P2;SDS_P1;SDS_P2;PMS_P1;PMS_P2;Temp;Humidity;BMP_temperature;BMP_pressure;BME280_temperature;BME280_humidity;BME280_pressure;Samples;Min_cycle;Max_cycle;Signal;HPM_P1;HPM_P2
2022/12/27 00:02:06;;;;;;;;;12.25;9.00;;;;;3.52;100.00;101612.91;4949041;28;47450;-89
2022/12/27 00:04:31;;;;;;;;;12.25;11.00;;;;;4.59;100.00;101792.63;4952450;28;45813;-90
2022/12/27 00:06:57;;;;;;;;;12.25;9.75;;;;;4.55;100.00;101792.50;4953014;28;44981;-90
2022/12/27 00:09:22;;;;;;;;;8.50;8.50;;;;;4.25;100.00;101734.22;4947278;28;44867;-90
2022/12/27 00:12:10;;;;;;;;;14.00;10.50;;;;;5.31;100.00;101948.06;5116974;27;45243;-91
2022/12/27 00:14:36;;;;;;;;;9.00;9.00;;;;;4.93;100.00;101877.25;5075884;28;45322;-91
2022/12/27 00:17:01;;;;;;;;;12.50;9.50;;;;;4.89;100.00;101885.00;5060727;28;45655;-90
2022/12/27 00:19:27;;;;;;;;;13.25;13.25;;;;;5.04;100.00;101916.84;5063214;28;45308;-91
2022/12/27 00:21:52;;;;;;;;;13.50;12.50;;;;;3.75;100.00;101689.38;5064854;27;48109;-92
2022/12/27 00:24:17;;;;;;;;;12.25;12.25;;;;;5.23;100.00;101943.50;5079873;27;45562;-91
2022/12/27 00:26:43;;;;;;;;;16.25;10.25;;;;;4.40;100.00;101808.72;5102214;27;45434;-90
2022/12/27 00:29:09;;;;;;;;;15.25;11.75;;;;;3.87;100.00;101714.94;5083645;27;45393;-89
2022/12/27 00:31:35;;;;;;;;;9.00;9.00;;;;;5.05;100.00;101934.31;5098170;27;48000;-91
2022/12/27 00:34:02;;;;;;;;;14.00;11.75;;;;;3.25;100.00;101629.66;5081573;27;45347;-89
2022/12/27 00:36:29;;;;;;;;;8.00;7.75;;;;;5.09;100.00;101938.78;5098837;27;45233;-90
2022/12/27 00:38:57;;;;;;;;;13.25;11.25;;;;;3.41;100.00;101656.22;5076199;27;45566;-90
2022/12/27 00:41:23;;;;;;;;;12.00;10.00;;;;;3.72;100.00;101721.53;5068077;28;48150;-90
2022/12/27 00:43:49;;;;;;;;;11.00;9.00;;;;;3.47;100.00;101690.34;5058630;28;45507;-90
2022/12/27 00:46:15;;;;;;;;;11.50;9.25;;;;;4.31;100.00;101843.41;5062116;28;45383;-90
2022/12/27 00:48:41;;;;;;;;;6.75;6.75;;;;;3.99;100.00;101777.16;5063483;28;45511;-90
2022/12/27 00:51:10;;;;;;;;;8.00;8.00;;;;;4.96;100.00;101960.28;5063147;28;46864;-90
2022/12/27 00:53:36;;;;;;;;;9.25;8.00;;;;;3.85;100.00;101785.50;5059085;28;45415;-91
2022/12/27 00:56:08;;;;;;;;;7.50;7.25;;;;;3.97;100.00;101799.78;5076160;28;45424;-91
2022/12/27 00:58:34;;;;;;;;;7.50;7.50;;;;;4.90;100.00;101960.16;5062777;28;45578;-89
2022/12/27 01:01:10;;;;;;;;;7.50;6.50;;;;;4.30;100.00;101854.75;5081963;28;45460;-91
2022/12/27 01:03:36;;;;;;;;;9.75;7.00;;;;;3.55;100.00;101734.16;5059583;28;45667;-90
2022/12/27 01:06:09;;;;;;;;;5.00;5.00;;;;;3.31;100.00;101687.34;5076541;28;45379;-91
2022/12/27 01:08:35;;;;;;;;;8.25;7.25;;;;;4.16;100.00;101827.31;5057121;28;45324;-90
2022/12/27 01:11:01;;;;;;;;;4.50;4.00;;;;;3.89;100.00;101802.19;5061730;28;47805;-90
2022/12/27 01:13:27;;;;;;;;;6.75;6.00;;;;;4.47;100.00;101888.34;5078344;28;45339;-90
2022/12/27 01:15:52;;;;;;;;;5.00;5.00;;;;;3.46;100.00;101727.78;5086513;28;45261;-90
2022/12/27 01:18:18;;;;;;;;;3.50;3.50;;;;;4.18;100.00;101846.56;5082473;28;45370;-90
2022/12/27 01:21:12;;;;;;;;;6.50;6.00;;;;;4.87;100.00;101966.19;5043531;28;47046;-91
2022/12/27 01:23:39;;;;;;;;;6.25;6.00;;;;;4.45;100.00;101893.53;5043305;28;45364;-90
2022/12/27 01:26:10;;;;;;;;;6.25;5.50;;;;;3.85;100.00;101811.66;5023480;28;45321;-91
2022/12/27 01:28:36;;;;;;;;;9.75;8.00;;;;;3.86;100.00;101802.13;5025969;28;45470;-90
2022/12/27 01:31:09;;;;;;;;;8.00;7.00;;;;;4.41;100.00;101903.03;5047554;28;45427;-91
2022/12/27 01:33:36;;;;;;;;;6.25;3.75;;;;;4.85;100.00;101967.00;5025831;28;45310;-91
2022/12/27 01:36:12;;;;;;;;;6.25;6.25;;;;;3.05;100.00;101651.75;5030744;28;45409;-90
2022/12/27 01:38:37;;;;;;;;;7.00;6.25;;;;;3.95;100.00;101828.53;5049410;28;45342;-89
2022/12/27 01:42:50;;;;;;;;;5.50;4.00;;;;;4.55;100.00;101926.06;5059461;28;46933;-92
2022/12/27 01:43:48;;;;;;;;;6.75;6.75;;;;;4.86;100.00;101984.47;5060628;28;45426;-89
2022/12/27 01:46:15;;;;;;;;;8.50;7.00;;;;;2.87;100.00;101631.22;5047260;28;45361;-90
2022/12/27 01:48:40;;;;;;;;;6.00;6.00;;;;;4.04;100.00;101834.00;5046681;28;45408;-91
2022/12/27 01:51:07;;;;;;;;;9.00;9.00;;;;;3.80;100.00;101781.91;5062513;28;45470;-89
2022/12/27 01:53:38;;;;;;;;;3.00;3.00;;;;;4.08;100.00;101835.88;5044835;28;45239;-91
2022/12/27 01:56:07;;;;;;;;;6.75;6.75;;;;;3.76;100.00;101794.84;5048160;28;45473;-90
2022/12/27 01:58:49;;;;;;;;;4.00;4.00;;;;;4.01;100.00;101839.16;5067500;28;45404;-89
2022/12/27 02:01:25;;;;;;;;;4.50;4.50;;;;;4.50;100.00;101923.31;5066775;28;48461;-90
2022/12/27 02:04:14;;;;;;;;;4.25;4.25;;;;;4.71;100.00;101954.44;5048891;28;45318;-90
2022/12/27 02:06:40;;;;;;;;;3.00;3.00;;;;;4.30;100.00;101894.00;5044410;28;45307;-90
2022/12/27 02:09:26;;;;;;;;;3.50;3.50;;;;;4.91;100.00;101982.88;5062359;28;45264;-90
2022/12/27 02:11:55;;;;;;;;;5.25;5.25;;;;;3.51;100.00;101757.56;5050397;28;47186;-89
2022/12/27 02:14:31;;;;;;;;;3.00;3.00;;;;;4.91;100.00;101993.38;5048874;28;45387;-89
2022/12/27 02:17:00;;;;;;;;;5.50;3.00;;;;;4.90;100.00;102004.69;5049037;28;45286;-89
2022/12/27 02:19:41;;;;;;;;;5.25;3.50;;;;;4.23;100.00;101881.59;5066543;28;45550;-90
2022/12/27 02:22:28;;;;;;;;;4.25;3.75;;;;;4.89;100.00;101995.03;5070348;28;45478;-89
2022/12/27 02:25:21;;;;;;;;;1.00;1.00;;;;;3.69;100.00;101804.25;5059945;28;45298;-89
2022/12/27 02:28:34;;;;;;;;;3.25;3.25;;;;;3.92;100.00;101845.00;5051647;28;45393;-89
2022/12/27 02:31:10;;;;;;;;;5.00;5.00;;;;;4.87;100.00;101995.00;5042671;28;45339;-89
2022/12/27 02:33:45;;;;;;;;;3.50;3.50;;;;;4.12;100.00;101868.22;5044548;28;48156;-90
2022/12/27 02:36:18;;;;;;;;;5.25;5.25;;;;;4.24;100.00;101899.09;5043256;28;45402;-90
2022/12/27 02:38:51;;;;;;;;;5.50;3.25;;;;;4.49;100.00;101936.38;5043266;28;45491;-90
2022/12/27 02:57:07;;;;;;;;;2.00;2.00;;;;;4.47;100.00;101911.91;5044844;28;45277;-90
2022/12/27 02:58:32;;;;;;;;;3.25;3.25;;;;;4.81;100.00;101984.38;5042810;28;45317;-89
2022/12/27 03:04:28;;;;;;;;;5.75;3.50;;;;;4.80;100.00;101993.09;5043639;28;45435;-90
2022/12/27 03:07:34;;;;;;;;;7.75;7.75;;;;;4.80;100.00;101996.59;5048784;28;45534;-90
2022/12/27 03:16:03;;;;;;;;;7.00;3.75;;;;;4.78;100.00;102008.78;4973063;28;45327;-90
2022/12/27 03:18:50;;;;;;;;;6.25;3.00;;;;;4.75;100.00;102008.69;4946858;28;47323;-89
2022/12/27 03:27:16;;;;;;;;;6.00;4.25;;;;;4.36;100.00;101920.34;4958927;28;45477;-90
2022/12/27 03:35:22;;;;;;;;;4.00;4.00;;;;;4.32;100.00;101928.97;4962353;28;45328;-90
2022/12/27 03:38:02;;;;;;;;;1.75;1.75;;;;;3.96;100.00;101882.59;4969652;28;45314;-90
2022/12/27 03:40:38;;;;;;;;;4.75;4.75;;;;;4.50;100.00;101987.91;4968144;28;46797;-91
2022/12/27 03:43:12;;;;;;;;;5.50;4.00;;;;;4.68;100.00;102011.13;4959173;28;45369;-91
2022/12/27 03:49:00;;;;;;;;;6.00;4.75;;;;;4.50;100.00;101986.19;5022767;28;45242;-91
2022/12/27 03:51:31;;;;;;;;;9.25;6.00;;;;;4.17;100.00;101925.91;4974142;28;48262;-91
2022/12/27 03:54:06;;;;;;;;;5.00;5.00;;;;;4.28;100.00;101950.66;5021866;28;45459;-92
2022/12/27 03:56:32;;;;;;;;;6.50;3.50;;;;;4.11;100.00;101917.91;5020710;28;45459;-91
2022/12/27 03:58:59;;;;;;;;;5.25;5.25;;;;;3.60;100.00;101819.69;5020104;28;45596;-91
2022/12/27 04:01:25;;;;;;;;;3.00;3.00;;;;;3.52;100.00;101819.47;5017665;28;46431;-91
2022/12/27 04:03:51;;;;;;;;;3.00;3.00;;;;;3.57;100.00;101815.25;5019624;28;45515;-91
2022/12/27 04:06:17;;;;;;;;;2.75;2.75;;;;;4.52;100.00;101986.22;5025372;28;45207;-91
2022/12/27 04:36:03;;;;;;;;;4.00;4.00;;;;;4.31;100.00;101958.59;5057147;28;45340;-91
2022/12/27 04:38:28;;;;;;;;;2.50;2.25;;;;;4.62;100.00;102003.97;5041097;28;45203;-92
2022/12/27 05:04:13;;;;;;;;;3.75;2.25;;;;;4.22;100.00;101927.84;5066107;28;45341;-92
2022/12/27 05:06:39;;;;;;;;;2.75;2.75;;;;;4.26;100.00;101941.88;5063713;28;47418;-91
2022/12/27 05:15:02;;;;;;;;;6.25;6.00;;;;;3.88;100.00;101871.03;4931920;28;45315;-92
2022/12/27 05:17:29;;;;;;;;;8.00;7.00;;;;;3.84;100.00;101854.38;4910166;28;47022;-92
2022/12/27 05:19:54;;;;;;;;;8.00;4.25;;;;;4.36;100.00;101953.50;4912974;28;45306;-91
2022/12/27 05:27:47;;;;;;;;;3.50;3.50;;;;;3.92;100.00;101870.28;4920780;28;45904;-92
2022/12/27 05:30:13;;;;;;;;;2.50;2.50;;;;;4.64;100.00;101997.03;4907210;28;45515;-92
2022/12/27 05:32:38;;;;;;;;;3.00;3.00;;;;;3.68;100.00;101824.28;4922928;28;45379;-91
2022/12/27 05:35:04;;;;;;;;;5.75;3.25;;;;;3.58;100.00;101827.47;4905161;28;45308;-92
2022/12/27 05:37:29;;;;;;;;;3.50;3.50;;;;;4.01;100.00;101891.47;4905970;28;47641;-92
2022/12/27 05:39:56;;;;;;;;;3.25;3.00;;;;;4.65;100.00;102001.44;4928947;28;45427;-91
2022/12/27 05:42:21;;;;;;;;;7.00;4.00;;;;;4.35;100.00;101934.28;4928903;28;45462;-92
2022/12/27 05:44:47;;;;;;;;;7.25;3.25;;;;;4.65;100.00;101992.66;4940493;28;44883;-91
2022/12/27 05:47:12;;;;;;;;;5.75;3.00;;;;;4.69;100.00;102007.63;4930568;28;47127;-91
2022/12/27 05:49:38;;;;;;;;;4.00;2.75;;;;;4.63;100.00;102009.25;4929192;28;45882;-92
2022/12/27 05:52:03;;;;;;;;;5.25;4.25;;;;;3.96;100.00;101882.59;4993931;28;45539;-91
2022/12/27 05:54:29;;;;;;;;;4.50;4.25;;;;;4.22;100.00;101917.38;5025283;28;45349;-92
2022/12/27 05:56:55;;;;;;;;;3.00;3.00;;;;;4.00;100.00;101875.75;5028989;28;45432;-91
2022/12/27 05:59:20;;;;;;;;;5.75;5.75;;;;;4.46;100.00;101963.38;5048589;28;45345;-91
2022/12/27 06:01:46;;;;;;;;;3.75;3.75;;;;;4.37;100.00;101937.84;5035008;28;45376;-91
2022/12/27 06:04:12;;;;;;;;;5.75;5.75;;;;;2.76;100.00;101659.63;5045869;28;45336;-91
2022/12/27 06:06:37;;;;;;;;;4.75;4.00;;;;;4.27;100.00;101925.34;5043695;28;47493;-90
2022/12/27 06:09:04;;;;;;;;;2.50;2.00;;;;;3.66;100.00;101814.63;5028693;28;45266;-91
2022/12/27 06:11:29;;;;;;;;;6.25;4.25;;;;;4.16;100.00;101890.13;5045409;28;45332;-92
2022/12/27 06:13:54;;;;;;;;;6.50;4.25;;;;;3.74;100.00;101827.06;5028759;28;45006;-91
2022/12/27 06:16:21;;;;;;;;;4.25;4.25;;;;;3.12;100.00;101732.06;5026302;28;46143;-91
2022/12/27 06:18:46;;;;;;;;;7.25;3.50;;;;;4.24;100.00;101909.56;5042949;28;45352;-91
2022/12/27 06:21:17;;;;;;;;;6.75;6.75;;;;;2.87;100.00;101681.75;5028449;28;45439;-92
2022/12/27 06:23:44;;;;;;;;;3.00;3.00;;;;;3.47;100.00;101782.72;5027654;28;45190;-91
2022/12/27 06:26:14;;;;;;;;;5.50;4.50;;;;;4.58;100.00;101994.25;5028304;28;46876;-91
2022/12/27 06:28:40;;;;;;;;;6.75;5.75;;;;;4.19;100.00;101916.38;5031439;28;45422;-89
2022/12/27 06:31:05;;;;;;;;;4.25;4.25;;;;;4.21;100.00;101915.56;5028299;28;45226;-92
2022/12/27 06:33:31;;;;;;;;;4.25;4.25;;;;;3.98;100.00;101882.63;5029137;28;45373;-90
2022/12/27 06:35:57;;;;;;;;;7.00;6.00;;;;;3.76;100.00;101834.09;5030111;28;47762;-89
2022/12/27 06:38:23;;;;;;;;;7.25;5.75;;;;;2.99;100.00;101699.47;5040328;28;45333;-93
2022/12/27 06:41:26;;;;;;;;;4.25;3.00;;;;;4.56;100.00;101975.00;5027245;28;45305;-89
2022/12/27 06:43:56;;;;;;;;;6.25;4.75;;;;;4.22;100.00;101932.16;5030077;28;45416;-90
2022/12/27 06:46:25;;;;;;;;;5.75;3.00;;;;;4.24;100.00;101933.09;5025896;28;46949;-90
2022/12/27 06:48:50;;;;;;;;;8.00;6.00;;;;;4.17;100.00;101928.53;5027426;28;45710;-92
2022/12/27 06:51:18;;;;;;;;;6.50;5.75;;;;;3.56;100.00;101813.47;5024982;28;45411;-91
2022/12/27 06:53:43;;;;;;;;;2.75;2.75;;;;;3.45;100.00;101786.16;5023207;28;45590;-92
2022/12/27 06:56:19;;;;;;;;;6.00;6.00;;;;;4.11;100.00;101910.06;5023667;28;46970;-92
2022/12/27 06:58:50;;;;;;;;;7.00;5.25;;;;;4.28;100.00;101948.03;5045796;28;44819;-91
2022/12/27 07:01:26;;;;;;;;;8.00;4.25;;;;;3.13;100.00;101739.09;5029675;28;45423;-90
2022/12/27 07:03:55;;;;;;;;;6.25;4.50;;;;;3.63;100.00;101825.00;5041202;28;45394;-92
2022/12/27 07:06:23;;;;;;;;;5.50;3.50;;;;;4.09;100.00;101913.50;5022479;28;47308;-91
2022/12/27 07:08:49;;;;;;;;;4.50;4.25;;;;;3.30;100.00;101781.38;5047261;28;45312;-91
2022/12/27 07:11:17;;;;;;;;;7.00;5.50;;;;;4.29;100.00;101939.34;5070098;28;44787;-89
2022/12/27 07:13:45;;;;;;;;;3.50;1.75;;;;;4.16;100.00;101921.53;5058586;28;45218;-91
2022/12/27 07:16:14;;;;;;;;;7.25;6.75;;;;;3.47;100.00;101805.38;5078142;28;45454;-89
2022/12/27 07:18:40;;;;;;;;;8.00;7.00;;;;;3.70;100.00;101843.50;5058736;28;45468;-89
2022/12/27 07:21:11;;;;;;;;;10.00;7.00;;;;;2.67;100.00;101671.59;5075595;28;44812;-89
2022/12/27 07:23:38;;;;;;;;;6.50;6.00;;;;;2.93;100.00;101717.56;5048218;28;45280;-90
2022/12/27 07:26:12;;;;;;;;;2.75;2.75;;;;;3.31;100.00;101804.94;5047226;28;47219;-91
2022/12/27 07:28:38;;;;;;;;;6.00;6.00;;;;;2.62;100.00;101667.94;5044098;28;45510;-91
2022/12/27 07:31:16;;;;;;;;;7.00;7.00;;;;;4.50;100.00;101994.03;5050249;28;45358;-91
2022/12/27 07:33:45;;;;;;;;;7.00;7.00;;;;;2.64;100.00;101673.19;5044366;28;45315;-95
2022/12/27 07:36:17;;;;;;;;;5.00;5.00;;;;;3.95;100.00;101907.00;5029665;28;47118;-90
2022/12/27 07:38:43;;;;;;;;;6.75;6.75;;;;;4.24;100.00;101964.53;5023407;28;45299;-92
2022/12/27 07:41:10;;;;;;;;;4.00;4.00;;;;;3.60;100.00;101836.28;5038618;28;45329;-91
2022/12/27 07:43:42;;;;;;;;;5.50;5.50;;;;;4.27;100.00;101946.28;5050152;28;45193;-93
2022/12/27 07:46:16;;;;;;;;;4.75;4.50;;;;;4.27;100.00;101952.38;5045949;28;46139;-91
2022/12/27 07:48:42;;;;;;;;;5.25;5.25;;;;;4.59;100.00;102001.25;5046264;28;45735;-93
2022/12/27 07:51:09;;;;;;;;;6.25;4.25;;;;;4.21;100.00;101930.41;5073594;28;44714;-91
2022/12/27 07:53:37;;;;;;;;;6.75;6.75;;;;;4.27;100.00;101943.66;5045746;28;45295;-91
2022/12/27 07:56:14;;;;;;;;;4.00;4.00;;;;;3.69;100.00;101846.09;5065493;28;46973;-90
2022/12/27 07:58:42;;;;;;;;;4.75;4.75;;;;;3.99;100.00;101893.16;5051323;28;45455;-91
2022/12/27 08:01:09;;;;;;;;;9.00;8.00;;;;;4.62;100.00;102011.81;5046247;28;45360;-91
2022/12/27 08:03:36;;;;;;;;;7.75;7.75;;;;;4.59;100.00;101988.16;5044310;28;45224;-91
2022/12/27 08:06:02;;;;;;;;;7.25;7.25;;;;;3.08;100.00;101725.84;5044975;28;47499;-92
2022/12/27 08:08:36;;;;;;;;;6.75;6.00;;;;;2.91;100.00;101714.03;5050389;28;45373;-92
2022/12/27 08:11:04;;;;;;;;;5.00;4.25;;;;;4.06;100.00;101905.56;5070602;28;44720;-91
2022/12/27 08:13:30;;;;;;;;;7.00;7.00;;;;;4.05;100.00;101893.34;5053388;28;45337;-92
2022/12/27 08:15:55;;;;;;;;;7.50;7.00;;;;;2.96;100.00;101715.06;5048687;28;47121;-93
2022/12/27 08:18:21;;;;;;;;;4.00;4.00;;;;;4.75;100.00;102008.69;5059320;28;45419;-93
2022/12/27 08:20:46;;;;;;;;;11.25;9.00;;;;;4.77;100.00;102017.47;5062955;28;45413;-93
2022/12/27 08:23:12;;;;;;;;;6.75;6.75;;;;;3.69;100.00;101830.38;5046569;28;45413;-90
2022/12/27 08:25:37;;;;;;;;;8.00;6.00;;;;;4.50;100.00;101960.00;5025437;28;47078;-91
2022/12/27 08:28:09;;;;;;;;;9.00;6.00;;;;;4.06;100.00;101889.00;5025447;28;45980;-91
2022/12/27 08:30:41;;;;;;;;;5.00;5.00;;;;;4.08;100.00;101890.81;5045865;28;45329;-92
2022/12/27 08:33:06;;;;;;;;;7.00;6.00;;;;;4.79;100.00;102020.13;5043127;28;45541;-92
2022/12/27 08:35:32;;;;;;;;;7.00;6.00;;;;;4.47;100.00;101953.78;5053171;28;48324;-91
2022/12/27 08:38:01;;;;;;;;;5.00;5.00;;;;;4.03;100.00;101881.06;5045717;28;45459;-91
2022/12/27 08:40:27;;;;;;;;;6.75;6.00;;;;;4.84;100.00;102029.00;5064031;28;45335;-92
2022/12/27 08:42:52;;;;;;;;;8.00;6.00;;;;;4.65;100.00;101988.34;5024371;28;45498;-92
2022/12/27 08:45:18;;;;;;;;;7.75;5.00;;;;;4.08;100.00;101897.75;5023336;28;47715;-91
2022/12/27 08:47:43;;;;;;;;;6.00;6.00;;;;;4.54;100.00;101958.31;5036844;28;45325;-90
2022/12/27 08:50:09;;;;;;;;;6.50;6.00;;;;;3.40;100.00;101772.06;5027796;28;45309;-90
2022/12/27 08:52:34;;;;;;;;;6.25;6.00;;;;;4.24;100.00;101914.78;5041804;28;45270;-90
2022/12/27 08:55:01;;;;;;;;;6.50;6.50;;;;;3.82;100.00;101848.22;5033393;28;48020;-91
2022/12/27 08:57:28;;;;;;;;;7.50;7.00;;;;;4.59;100.00;101954.13;5038090;28;45332;-89
2022/12/27 08:59:53;;;;;;;;;9.00;7.00;;;;;4.20;100.00;101916.41;5023873;28;45454;-91
2022/12/27 09:02:19;;;;;;;;;7.00;6.25;;;;;3.95;100.00;101845.94;5041734;28;45260;-91
2022/12/27 09:04:47;;;;;;;;;11.00;11.00;;;;;4.53;100.00;101946.97;5035054;28;46376;-91
2022/12/27 09:07:13;;;;;;;;;7.00;6.00;;;;;4.60;100.00;101950.63;5056984;28;45201;-92
2022/12/27 09:09:39;;;;;;;;;6.25;6.25;;;;;4.14;100.00;101870.88;5042664;28;44865;-93
2022/12/27 09:12:06;;;;;;;;;9.25;7.00;;;;;3.46;100.00;101749.59;5047973;28;45264;-91
2022/12/27 09:14:31;;;;;;;;;9.00;8.25;;;;;4.79;100.00;101978.22;5051111;28;48207;-92
2022/12/27 09:16:57;;;;;;;;;6.75;6.75;;;;;4.55;100.00;101926.06;5052588;28;45241;-89
2022/12/27 09:19:22;;;;;;;;;6.50;6.50;;;;;4.37;100.00;101888.09;5054123;28;45330;-91
2022/12/27 09:25:28;;;;;;;;;10.25;10.00;;;;;5.38;100.00;102026.88;5072370;28;45257;-90
2022/12/27 09:27:54;;;;;;;;;9.25;4.25;;;;;5.11;100.00;101986.00;5052325;28;45322;-90
2022/12/27 09:30:19;;;;;;;;;8.50;7.25;;;;;5.49;100.00;102028.00;5048264;28;45422;-91
2022/12/27 09:32:45;;;;;;;;;12.25;8.25;;;;;4.57;100.00;101888.59;5065718;28;45275;-91
2022/12/27 09:35:10;;;;;;;;;11.00;9.50;;;;;3.72;100.00;101711.09;5061728;28;46182;-90
2022/12/27 09:37:35;;;;;;;;;11.50;7.75;;;;;5.31;100.00;101984.78;5060284;28;44758;-91
2022/12/27 09:40:04;;;;;;;;;9.00;7.25;;;;;5.76;100.00;102046.13;5046643;28;45315;-91
2022/12/27 09:43:01;;;;;;;;;12.00;6.50;;;;;5.40;100.00;101973.59;5042636;28;45432;-91
2022/12/27 09:45:41;;;;;;;;;8.25;8.00;;;;;6.01;100.00;102068.63;4999639;28;48816;-89
2022/12/27 09:48:25;;;;;;;;;9.25;8.25;;;;;5.65;100.00;101966.31;5010566;28;45374;-91
2022/12/27 09:50:56;;;;;;;;;12.25;7.50;;;;;5.08;100.00;101839.16;5022151;28;45333;-90
2022/12/27 09:53:50;;;;;;;;;12.75;8.50;;;;;6.61;100.00;102050.63;5012725;28;45431;-94
2022/12/27 09:56:29;;;;;;;;;8.00;7.25;;;;;6.24;100.00;101950.09;5029288;28;47201;-91
2022/12/27 09:59:03;;;;;;;;;8.50;7.50;;;;;7.01;100.00;102055.75;5035369;28;45292;-89
2022/12/27 10:01:32;;;;;;;;;8.00;6.50;;;;;5.59;100.00;101786.06;5033002;28;45316;-92
2022/12/27 10:03:59;;;;;;;;;10.50;9.25;;;;;6.82;100.00;101944.09;5010843;28;45419;-91
2022/12/27 10:06:31;;;;;;;;;11.00;9.50;;;;;7.68;100.00;102049.84;5026780;28;45829;-91
2022/12/27 10:09:20;;;;;;;;;7.50;7.00;;;;;7.89;100.00;102037.00;5034409;28;45674;-91
2022/12/27 10:12:11;;;;;;;;;4.75;4.50;;;;;7.72;100.00;101967.44;5044110;28;45280;-92
2022/12/27 10:15:02;;;;;;;;;9.25;9.25;;;;;8.10;100.00;101996.91;5045450;28;45280;-92
2022/12/27 10:17:49;;;;;;;;;9.50;8.00;;;;;7.83;99.83;101893.03;5048039;28;46925;-92
2022/12/27 10:20:31;;;;;;;;;9.25;9.25;;;;;8.17;98.85;101921.50;5048551;28;45254;-91
2022/12/27 10:23:01;;;;;;;;;11.00;9.00;;;;;7.69;97.88;101791.94;5056064;28;45351;-91
2022/12/27 10:25:29;;;;;;;;;12.25;11.25;;;;;8.74;97.81;101958.13;5048716;28;45660;-92
2022/12/27 10:28:00;;;;;;;;;10.00;10.00;;;;;8.76;97.80;101932.66;5047014;28;47166;-90
2022/12/27 10:30:29;;;;;;;;;10.75;9.50;;;;;7.84;97.27;101762.28;5016001;28;45289;-92
2022/12/27 10:32:55;;;;;;;;;12.75;9.75;;;;;8.97;97.03;101924.91;5052858;28;45554;-91
2022/12/27 10:35:23;;;;;;;;;12.00;11.25;;;;;9.57;97.26;102011.56;5040549;28;45591;-90
2022/12/27 10:37:48;;;;;;;;;13.25;11.25;;;;;8.20;95.06;101763.50;5026305;28;47727;-90
2022/12/27 10:40:19;;;;;;;;;11.75;10.25;;;;;9.43;94.11;101951.66;5037820;28;45355;-92
2022/12/27 10:42:58;;;;;;;;;11.00;10.75;;;;;9.86;95.43;102013.50;5007282;28;45274;-91
2022/12/27 10:45:41;;;;;;;;;12.25;11.00;;;;;9.42;95.14;101899.72;5045046;28;45401;-90
2022/12/27 10:48:15;;;;;;;;;7.50;7.00;;;;;10.20;95.26;102008.38;5041673;28;45438;-91
2022/12/27 10:50:54;;;;;;;;;9.75;8.25;;;;;10.11;94.26;101951.09;5020742;28;45455;-91
2022/12/27 10:53:53;;;;;;;;;10.75;9.00;;;;;10.32;93.65;101945.91;5045917;28;45314;-90
2022/12/27 10:56:30;;;;;;;;;7.25;7.25;;;;;9.51;93.03;101789.81;5060108;28;45455;-91
2022/12/27 10:59:23;;;;;;;;;10.00;10.00;;;;;10.69;92.31;101961.00;5033339;28;46957;-91
2022/12/27 11:02:01;;;;;;;;;7.00;7.00;;;;;11.00;92.62;102009.50;5040012;28;45411;-91
2022/12/27 11:04:29;;;;;;;;;8.00;7.75;;;;;11.11;93.38;102006.88;5024622;28;45490;-90
2022/12/27 11:07:01;;;;;;;;;9.50;9.50;;;;;11.37;92.87;102017.47;5056700;28;45508;-90
2022/12/27 11:09:42;;;;;;;;;6.00;6.00;;;;;11.73;91.71;102013.00;5025702;28;48581;-90
2022/12/27 11:12:23;;;;;;;;;7.50;6.25;;;;;11.05;90.46;101839.31;5061584;28;45446;-90
2022/12/27 11:15:17;;;;;;;;;9.75;8.00;;;;;12.10;89.48;101948.47;5062183;28;45434;-92
2022/12/27 11:17:46;;;;;;;;;9.50;9.50;;;;;12.36;87.37;101939.47;5060483;28;45351;-91
2022/12/27 11:20:25;;;;;;;;;10.00;7.00;;;;;12.67;87.77;101942.81;5052510;28;48054;-91
2022/12/27 11:23:01;;;;;;;;;7.00;7.00;;;;;13.33;86.82;101982.13;5020062;28;45953;-91
2022/12/27 11:25:28;;;;;;;;;10.75;9.75;;;;;13.64;86.87;101973.84;5022312;28;45506;-91
2022/12/27 11:28:02;;;;;;;;;9.75;8.00;;;;;12.95;83.41;101810.81;5060709;28;45219;-89
2022/12/27 11:30:33;;;;;;;;;5.75;5.75;;;;;14.24;81.94;101958.09;5053389;28;46849;-92
2022/12/27 11:33:18;;;;;;;;;8.00;8.00;;;;;14.48;84.11;101952.41;5044827;28;45350;-90
2022/12/27 11:35:49;;;;;;;;;8.00;8.00;;;;;13.88;83.88;101796.44;5037762;28;45475;-90
2022/12/27 11:38:23;;;;;;;;;11.25;10.50;;;;;14.30;83.53;101804.66;5026336;28;45356;-90
2022/12/27 11:40:59;;;;;;;;;10.00;10.00;;;;;14.75;83.58;101818.09;5057383;28;46886;-90
2022/12/27 11:43:31;;;;;;;;;8.75;8.75;;;;;15.17;82.79;101821.75;5039517;28;45644;-91
2022/12/27 11:46:05;;;;;;;;;8.00;7.50;;;;;16.03;82.59;101929.31;5020958;28;45384;-90
2022/12/27 11:48:40;;;;;;;;;9.50;9.50;;;;;15.52;81.21;101785.56;5041458;28;45569;-91
2022/12/27 11:51:22;;;;;;;;;9.00;9.00;;;;;16.54;80.68;101913.97;5058273;28;45461;-90
2022/12/27 11:54:07;;;;;;;;;8.25;6.75;;;;;16.06;81.31;101795.03;5045665;28;45309;-88
2022/12/27 11:56:46;;;;;;;;;9.75;8.75;;;;;16.97;81.29;101897.75;5056800;28;44841;-90
2022/12/27 11:59:36;;;;;;;;;9.00;9.00;;;;;17.38;80.90;101903.81;5067633;28;45378;-89
2022/12/27 12:02:36;;;;;;;;;6.75;5.50;;;;;17.82;79.78;101902.59;5034599;28;46403;-88
2022/12/27 12:05:31;;;;;;;;;4.50;4.50;;;;;18.30;78.69;101915.44;5047512;28;45291;-89
2022/12/27 12:07:59;;;;;;;;;1.00;1.00;;;;;18.65;78.79;101900.91;5040541;28;45309;-89
2022/12/27 12:11:02;;;;;;;;;3.50;2.50;;;;;19.05;76.96;101908.56;5021604;28;45575;-88
2022/12/27 12:13:59;;;;;;;;;2.00;2.00;;;;;19.41;76.39;101897.47;5041855;28;47450;-91
2022/12/27 12:17:01;;;;;;;;;4.00;3.25;;;;;19.39;75.26;101835.88;5060031;28;45373;-90
2022/12/27 12:19:51;;;;;;;;;2.50;2.50;;;;;20.02;72.91;101891.66;4960536;28;44849;-90
2022/12/27 12:22:35;;;;;;;;;3.50;3.50;;;;;20.24;74.77;101886.31;4943400;28;45377;-90
2022/12/27 12:25:32;;;;;;;;;3.00;3.00;;;;;20.48;75.25;101902.34;4941544;28;46182;-91
2022/12/27 12:28:36;;;;;;;;;2.75;1.75;;;;;20.81;75.34;101885.81;4951865;28;45600;-92
2022/12/27 12:31:04;;;;;;;;;2.50;2.50;;;;;21.09;74.67;101886.38;4944386;28;45677;-90
2022/12/27 12:33:51;;;;;;;;;4.00;3.25;;;;;21.20;74.23;101879.66;4956345;28;45597;-91
2022/12/27 12:36:32;;;;;;;;;3.25;2.25;;;;;21.40;73.95;101870.69;4947365;28;48720;-91
2022/12/27 12:39:08;;;;;;;;;1.75;1.50;;;;;20.08;73.48;101638.31;4959040;28;45441;-90
2022/12/27 12:41:54;;;;;;;;;1.75;1.75;;;;;21.08;70.95;101761.00;4942996;28;45526;-90
2022/12/27 12:44:37;;;;;;;;;1.25;1.25;;;;;21.14;73.51;101742.84;4934075;28;45449;-90
2022/12/27 12:47:29;;;;;;;;;3.50;3.00;;;;;21.81;72.67;101852.66;4956669;28;45530;-90
2022/12/27 12:50:15;;;;;;;;;2.00;2.00;;;;;21.33;72.58;101765.22;4944747;28;46012;-90
2022/12/27 12:53:16;;;;;;;;;3.00;3.00;;;;;21.47;73.26;101795.06;4936836;28;45445;-91
2022/12/27 12:56:12;;;;;;;;;3.00;3.00;;;;;20.58;74.52;101654.00;5025061;28;45671;-90
2022/12/27 12:58:54;;;;;;;;;2.50;2.50;;;;;20.37;72.45;101629.84;5039831;28;47248;-89
2022/12/27 13:01:40;;;;;;;;;1.00;0.00;;;;;21.55;66.96;101823.44;5039754;28;45434;-90
2022/12/27 13:04:16;;;;;;;;;2.00;2.00;;;;;20.92;72.15;101784.13;5035012;28;45412;-90
2022/12/27 13:07:12;;;;;;;;;1.00;1.00;;;;;20.88;71.56;101826.38;5038317;28;45454;-90
2022/12/27 13:10:14;;;;;;;;;1.25;1.25;;;;;20.48;75.28;101821.81;5051691;28;46408;-90
2022/12/27 13:12:58;;;;;;;;;3.75;2.00;;;;;19.71;77.45;101826.63;5021487;28;45483;-90
2022/12/27 13:15:35;;;;;;;;;1.75;1.00;;;;;19.02;81.18;101825.63;5056517;28;45516;-90
2022/12/27 13:18:06;;;;;;;;;2.00;2.00;;;;;18.33;82.95;101828.84;5045022;28;45308;-89
2022/12/27 13:21:00;;;;;;;;;3.75;1.00;;;;;17.59;84.53;101827.47;5044133;28;46196;-89
2022/12/27 13:23:39;;;;;;;;;4.00;3.00;;;;;16.82;86.79;101837.63;5041307;28;45443;-92
2022/12/27 13:26:42;;;;;;;;;1.00;1.00;;;;;16.20;87.65;101826.72;5061766;28;45395;-92
2022/12/27 13:29:32;;;;;;;;;2.00;2.00;;;;;15.45;88.91;101825.63;5047333;28;45245;-92
2022/12/27 13:32:12;;;;;;;;;2.00;2.00;;;;;14.90;92.32;101816.94;5060472;28;48233;-90
2022/12/27 13:34:59;;;;;;;;;2.75;2.75;;;;;13.61;92.10;101684.34;5046761;28;45276;-91
2022/12/27 13:37:46;;;;;;;;;4.00;2.75;;;;;13.90;88.60;101812.34;5051868;28;45492;-88